createdAt,value
2018-12-09T00:00:26.721Z,2.47
2018-12-09T00:02:54.271Z,7.07
2018-12-09T00:05:21.815Z,5.47
2018-12-09T00:07:49.563Z,6.10
2018-12-09T00:10:17.012Z,3.90
2018-12-09T00:12:45.153Z,3.10
2018-12-09T00:15:12.948Z,3.90
2018-12-09T00:17:40.548Z,3.40
2018-12-09T00:20:08.109Z,5.80
2018-12-09T00:22:35.661Z,11.43
2018-12-09T00:25:03.454Z,10.43
2018-12-09T00:27:30.970Z,8.57
2018-12-09T00:29:59.428Z,13.07
2018-12-09T00:32:27.123Z,14.50
2018-12-09T00:34:54.690Z,11.47
2018-12-09T00:37:22.330Z,15.90
2018-12-09T00:39:49.972Z,17.40
2018-12-09T00:42:17.594Z,13.63
2018-12-09T00:44:45.171Z,15.90
2018-12-09T00:47:13.191Z,8.30
2018-12-09T00:49:41.409Z,17.70
2018-12-09T00:52:08.932Z,14.07
2018-12-09T00:54:37.499Z,13.53
2018-12-09T00:57:05.235Z,15.77
2018-12-09T00:59:32.779Z,10.80
2018-12-09T01:02:05.203Z,11.80
2018-12-09T01:04:33.088Z,9.23
2018-12-09T01:07:00.791Z,9.77
2018-12-09T01:09:28.588Z,15.63
2018-12-09T01:11:56.252Z,20.10
2018-12-09T01:14:23.820Z,17.90
2018-12-09T01:16:52.715Z,12.67
2018-12-09T01:19:21.139Z,13.97
2018-12-09T01:21:48.725Z,8.97
2018-12-09T01:24:16.354Z,17.30
2018-12-09T01:26:44.433Z,13.83
2018-12-09T01:29:11.929Z,15.90
2018-12-09T01:31:39.601Z,12.97
2018-12-09T01:34:07.238Z,15.13
2018-12-09T01:36:34.853Z,11.03
2018-12-09T01:39:02.423Z,13.63
2018-12-09T01:41:29.873Z,11.23
2018-12-09T01:43:57.374Z,14.10
2018-12-09T01:46:24.921Z,21.70
2018-12-09T01:48:52.432Z,16.17
2018-12-09T01:51:20.051Z,16.17
2018-12-09T01:54:09.525Z,16.37
2018-12-09T01:56:37.678Z,12.20
2018-12-09T01:59:05.544Z,14.90
2018-12-09T02:01:33.139Z,17.97
2018-12-09T02:04:00.668Z,18.53
2018-12-09T02:06:28.348Z,14.77
2018-12-09T02:08:55.851Z,15.40
2018-12-09T02:11:23.312Z,8.37
2018-12-09T02:13:51.630Z,16.23
2018-12-09T02:16:19.366Z,5.70
2018-12-09T02:18:47.747Z,5.03
2018-12-09T02:21:16.349Z,12.17
2018-12-09T02:23:45.540Z,6.87
2018-12-09T02:26:13.075Z,8.07
2018-12-09T02:28:43.169Z,11.20
2018-12-09T02:31:11.941Z,9.70
2018-12-09T02:33:39.459Z,18.90
2018-12-09T02:36:07.080Z,1.87
2018-12-09T02:38:35.243Z,1.90
2018-12-09T02:41:03.253Z,4.13
2018-12-09T02:43:30.847Z,4.97
2018-12-09T02:45:58.490Z,5.93
2018-12-09T02:48:25.982Z,5.87
2018-12-09T02:50:53.789Z,6.27
2018-12-09T02:53:21.378Z,3.30
2018-12-09T02:55:49.513Z,1.90
2018-12-09T02:58:17.111Z,8.23
2018-12-09T03:00:45.311Z,6.20
2018-12-09T03:03:13.015Z,8.70
2018-12-09T03:05:40.747Z,6.53
2018-12-09T03:08:09.066Z,3.03
2018-12-09T03:10:37.169Z,5.47
2018-12-09T03:13:04.787Z,6.07
2018-12-09T03:15:32.811Z,9.00
2018-12-09T03:18:00.384Z,4.80
2018-12-09T03:20:28.003Z,4.17
2018-12-09T03:22:55.723Z,3.10
2018-12-09T03:25:23.322Z,8.37
2018-12-09T03:27:51.260Z,4.93
2018-12-09T03:30:18.920Z,12.60
2018-12-09T03:32:46.505Z,7.20
2018-12-09T03:35:14.089Z,11.03
2018-12-09T03:37:41.687Z,5.40
2018-12-09T03:40:09.800Z,6.40
2018-12-09T03:42:37.396Z,8.23
2018-12-09T03:45:05.284Z,7.77
2018-12-09T03:47:32.862Z,4.80
2018-12-09T03:50:00.541Z,4.97
2018-12-09T03:52:28.123Z,6.43
2018-12-09T03:54:55.661Z,3.60
2018-12-09T03:57:23.790Z,2.50
2018-12-09T03:59:51.401Z,3.87
2018-12-09T04:02:18.889Z,5.83
2018-12-09T04:04:46.700Z,2.10
2018-12-09T04:07:14.373Z,4.17
2018-12-09T04:09:41.917Z,1.87
2018-12-09T04:12:09.466Z,1.77
2018-12-09T04:14:36.961Z,4.23
2018-12-09T04:17:04.510Z,2.30
2018-12-09T04:19:32.054Z,3.17
2018-12-09T04:21:59.732Z,1.43
2018-12-09T04:24:27.206Z,3.43
2018-12-09T04:26:54.855Z,4.77
2018-12-09T04:29:22.638Z,1.57
2018-12-09T04:31:51.088Z,4.47
2018-12-09T04:34:18.679Z,5.97
2018-12-09T04:36:46.828Z,5.43
2018-12-09T04:39:14.394Z,2.57
2018-12-09T04:41:42.007Z,1.40
2018-12-09T04:44:09.952Z,3.80
2018-12-09T04:46:37.582Z,4.40
2018-12-09T04:49:05.023Z,1.50
2018-12-09T04:51:43.745Z,3.87
2018-12-09T04:54:11.149Z,5.63
2018-12-09T04:56:39.669Z,5.23
2018-12-09T04:59:16.584Z,12.47
2018-12-09T05:01:44.638Z,4.63
2018-12-09T05:04:12.446Z,6.17
2018-12-09T05:06:40.022Z,9.17
2018-12-09T05:09:07.652Z,6.93
2018-12-09T05:11:35.870Z,1.47
2018-12-09T05:14:03.873Z,1.53
2018-12-09T05:16:31.439Z,3.77
2018-12-09T05:18:59.065Z,1.70
2018-12-09T05:21:26.562Z,6.07
2018-12-09T05:23:54.059Z,8.03
2018-12-09T05:26:22.467Z,3.50
2018-12-09T05:28:50.026Z,7.67
2018-12-09T05:31:18.227Z,3.43
2018-12-09T05:33:45.783Z,2.73
2018-12-09T05:36:13.379Z,3.90
2018-12-09T05:38:41.363Z,19.43
2018-12-09T05:41:08.885Z,14.43
2018-12-09T05:43:36.355Z,8.33
2018-12-09T05:46:04.129Z,2.50
2018-12-09T05:48:31.598Z,7.73
2018-12-09T05:50:59.645Z,10.77
2018-12-09T05:53:27.158Z,8.77
2018-12-09T05:55:54.990Z,5.63
2018-12-09T05:58:29.098Z,3.73
2018-12-09T06:00:56.586Z,8.30
2018-12-09T06:03:24.333Z,11.63
2018-12-09T06:05:51.832Z,11.00
2018-12-09T06:08:19.414Z,5.50
2018-12-09T06:10:47.137Z,4.57
2018-12-09T06:13:14.743Z,8.23
2018-12-09T06:15:43.535Z,7.80
2018-12-09T06:18:11.220Z,6.83
2018-12-09T06:20:38.855Z,5.70
2018-12-09T06:23:06.580Z,7.47
2018-12-09T06:25:34.098Z,7.90
2018-12-09T06:28:01.856Z,6.93
2018-12-09T06:30:29.667Z,11.03
2018-12-09T06:32:57.097Z,5.20
2018-12-09T06:35:25.278Z,9.37
2018-12-09T06:37:52.789Z,16.57
2018-12-09T06:40:20.824Z,18.73
2018-12-09T06:42:48.414Z,12.57
2018-12-09T06:45:15.889Z,22.77
2018-12-09T06:47:44.242Z,28.27
2018-12-09T06:50:11.814Z,15.17
2018-12-09T06:52:39.919Z,13.10
2018-12-09T06:55:08.738Z,13.57
2018-12-09T06:57:36.362Z,6.83
2018-12-09T07:00:06.120Z,15.53
2018-12-09T07:02:34.215Z,12.03
2018-12-09T07:05:01.853Z,7.07
2018-12-09T07:07:29.543Z,7.70
2018-12-09T07:09:57.071Z,8.73
2018-12-09T07:12:24.574Z,5.77
2018-12-09T07:14:52.096Z,8.43
2018-12-09T07:17:19.596Z,6.67
2018-12-09T07:19:48.495Z,17.43
2018-12-09T07:22:15.980Z,16.97
2018-12-09T07:24:43.567Z,6.43
2018-12-09T07:27:11.467Z,6.07
2018-12-09T07:29:39.102Z,7.63
2018-12-09T07:32:06.677Z,8.07
2018-12-09T07:34:34.791Z,6.87
2018-12-09T07:37:02.330Z,8.57
2018-12-09T07:39:29.959Z,4.47
2018-12-09T07:41:57.667Z,6.20
2018-12-09T07:44:25.630Z,10.70
2018-12-09T07:46:53.280Z,10.90
2018-12-09T07:49:20.783Z,12.23
2018-12-09T07:51:48.412Z,13.47
2018-12-09T07:54:16.059Z,11.10
2018-12-09T07:56:43.791Z,20.93
2018-12-09T07:59:11.676Z,12.80
2018-12-09T08:01:39.610Z,13.57
2018-12-09T08:04:07.368Z,11.20
2018-12-09T08:06:35.009Z,7.97
2018-12-09T08:09:04.089Z,10.40
2018-12-09T08:24:36.148Z,11.13
2018-12-09T08:27:04.340Z,13.00
2018-12-09T08:29:31.830Z,12.00
2018-12-09T08:31:59.529Z,14.03
2018-12-09T08:34:27.990Z,11.70
2018-12-09T08:36:56.276Z,14.53
2018-12-09T08:39:24.514Z,12.27
2018-12-09T08:41:52.189Z,13.50
2018-12-09T08:44:19.879Z,14.30
2018-12-09T08:46:47.341Z,8.57
2018-12-09T08:49:15.057Z,8.90
2018-12-09T08:51:42.587Z,13.13
2018-12-09T08:54:10.193Z,10.53
2018-12-09T08:56:37.803Z,9.17
2018-12-09T08:59:05.803Z,9.87
2018-12-09T09:01:35.931Z,7.30
2018-12-09T09:04:03.662Z,7.33
2018-12-09T09:06:31.188Z,6.30
2018-12-09T09:08:58.686Z,7.43
2018-12-09T09:11:26.381Z,8.20
2018-12-09T09:13:53.959Z,6.03
2018-12-09T09:16:21.510Z,7.13
2018-12-09T09:18:49.067Z,3.57
2018-12-09T09:21:16.709Z,4.07
2018-12-09T09:23:44.355Z,4.47
2018-12-09T09:26:12.127Z,8.10
2018-12-09T09:28:39.680Z,5.07
2018-12-09T09:31:07.164Z,7.00
2018-12-09T09:33:35.656Z,9.97
2018-12-09T09:36:03.176Z,11.37
2018-12-09T09:38:30.706Z,8.60
2018-12-09T09:40:59.027Z,4.20
2018-12-09T09:43:27.095Z,5.23
2018-12-09T09:45:54.722Z,5.70
2018-12-09T09:48:22.223Z,4.90
2018-12-09T09:50:49.948Z,3.17
2018-12-09T09:53:18.068Z,2.37
2018-12-09T09:55:45.960Z,3.63
2018-12-09T09:58:13.585Z,2.10
2018-12-09T10:00:41.925Z,3.33
2018-12-09T10:03:10.036Z,2.73
2018-12-09T10:05:37.874Z,2.20
2018-12-09T10:08:05.357Z,3.60
2018-12-09T10:10:33.132Z,8.80
2018-12-09T10:13:01.255Z,2.73
2018-12-09T10:15:29.858Z,2.70
2018-12-09T10:17:57.484Z,6.40
2018-12-09T10:20:25.778Z,3.50
2018-12-09T10:22:53.964Z,6.97
2018-12-09T10:25:21.637Z,6.40
2018-12-09T10:27:49.122Z,4.03
2018-12-09T10:30:16.527Z,5.83
2018-12-09T10:32:44.060Z,3.40
2018-12-09T10:35:11.689Z,1.13
2018-12-09T10:37:39.942Z,3.90
2018-12-09T10:40:07.579Z,2.50
2018-12-09T10:42:35.379Z,2.83
2018-12-09T10:45:04.138Z,1.77
2018-12-09T10:47:31.615Z,1.80
2018-12-09T11:03:03.801Z,1.50
2018-12-09T11:05:31.939Z,4.33
2018-12-09T11:08:01.059Z,5.27
2018-12-09T11:10:28.600Z,5.93
2018-12-09T11:12:56.119Z,2.30
2018-12-09T11:15:23.719Z,2.60
2018-12-09T11:17:51.259Z,6.87
2018-12-09T11:20:18.879Z,6.63
2018-12-09T11:22:46.598Z,5.13
2018-12-09T11:25:14.410Z,4.70
2018-12-09T11:27:42.261Z,5.80
2018-12-09T11:30:17.265Z,7.33
2018-12-09T11:32:44.676Z,1.83
2018-12-09T11:35:12.774Z,1.93
2018-12-09T11:37:40.409Z,1.20
2018-12-09T11:40:08.376Z,2.60
2018-12-09T11:42:35.872Z,5.20
2018-12-09T11:45:03.650Z,3.87
2018-12-09T11:47:31.519Z,2.73
2018-12-09T11:49:59.393Z,1.70
2018-12-09T11:52:27.640Z,3.70
2018-12-09T11:54:55.330Z,3.73
2018-12-09T11:57:23.508Z,7.20
2018-12-09T11:59:51.622Z,2.30
2018-12-09T12:02:20.878Z,2.40
2018-12-09T12:04:48.414Z,2.60
2018-12-09T12:07:16.055Z,1.07
2018-12-09T12:09:44.323Z,2.43
2018-12-09T12:12:12.934Z,0.57
2018-12-09T12:14:41.276Z,3.13
2018-12-09T12:17:09.323Z,1.63
2018-12-09T12:19:36.893Z,2.17
2018-12-09T12:22:05.381Z,3.20
2018-12-09T12:24:32.909Z,2.07
2018-12-09T12:27:01.201Z,2.13
2018-12-09T12:29:29.677Z,2.00
2018-12-09T12:31:57.374Z,1.57
2018-12-09T12:34:25.417Z,2.70
2018-12-09T12:36:53.093Z,1.33
2018-12-09T12:39:20.717Z,0.90
2018-12-09T12:41:48.431Z,1.43
2018-12-09T12:44:16.186Z,4.00
2018-12-09T12:46:44.785Z,1.93
2018-12-09T12:49:12.469Z,1.07
2018-12-09T12:51:40.452Z,1.67
2018-12-09T12:54:08.897Z,1.33
2018-12-09T12:56:37.255Z,1.47
2018-12-09T12:59:04.962Z,1.63
2018-12-09T13:01:34.110Z,1.23
2018-12-09T13:04:01.766Z,1.47
2018-12-09T13:06:30.375Z,4.93
2018-12-09T13:08:58.073Z,1.03
2018-12-09T13:11:25.736Z,4.30
2018-12-09T13:13:53.930Z,5.93
2018-12-09T13:16:21.958Z,2.30
2018-12-09T13:31:54.158Z,6.27
2018-12-09T13:34:22.848Z,8.00
2018-12-09T13:36:50.596Z,9.00
2018-12-09T13:39:18.390Z,7.40
2018-12-09T13:41:46.511Z,1.37
2018-12-09T13:57:18.705Z,4.20
2018-12-09T13:59:46.474Z,6.10
2018-12-09T14:02:14.594Z,2.93
2018-12-09T14:04:42.321Z,1.90
2018-12-09T14:07:10.327Z,1.00
2018-12-09T14:09:37.997Z,2.70
2018-12-09T14:12:05.548Z,1.90
2018-12-09T14:14:38.947Z,2.20
2018-12-09T14:17:07.170Z,2.33
2018-12-09T14:19:34.774Z,3.47
2018-12-09T14:22:03.107Z,7.00
2018-12-09T14:24:30.959Z,1.83
2018-12-09T14:26:58.440Z,1.93
2018-12-09T14:29:28.024Z,3.73
2018-12-09T14:31:55.953Z,5.10
2018-12-09T14:34:23.652Z,4.03
2018-12-09T14:36:51.746Z,3.27
2018-12-09T14:39:20.741Z,1.83
2018-12-09T14:41:49.055Z,3.90
2018-12-09T14:44:16.755Z,2.07
2018-12-09T14:46:44.335Z,3.13
2018-12-09T14:49:13.012Z,1.80
2018-12-09T14:51:42.655Z,1.47
2018-12-09T14:54:10.334Z,1.77
2018-12-09T14:56:37.893Z,12.40
2018-12-09T14:59:05.490Z,2.30
2018-12-09T15:01:35.492Z,2.73
2018-12-09T15:04:34.588Z,3.93
2018-12-09T15:07:02.295Z,1.30
2018-12-09T15:09:30.109Z,1.27
2018-12-09T15:11:57.659Z,2.80
2018-12-09T15:14:25.194Z,6.87
2018-12-09T15:16:53.169Z,6.57
2018-12-09T15:19:21.500Z,15.17
2018-12-09T15:21:49.171Z,2.13
2018-12-09T15:24:16.899Z,7.90
2018-12-09T15:26:44.485Z,5.50
2018-12-09T15:29:12.039Z,8.13
2018-12-09T15:31:39.690Z,1.50
2018-12-09T15:34:07.494Z,5.70
2018-12-09T15:36:35.064Z,10.23
2018-12-09T15:39:04.363Z,2.53
2018-12-09T15:41:31.963Z,5.43
2018-12-09T15:43:59.521Z,4.57
2018-12-09T15:46:27.010Z,4.03
2018-12-09T15:48:56.191Z,1.37
2018-12-09T15:51:23.913Z,5.90
2018-12-09T15:53:52.070Z,4.37
2018-12-09T15:56:19.656Z,5.03
2018-12-09T15:58:47.162Z,5.80
2018-12-09T16:01:14.829Z,6.17
2018-12-09T16:03:46.059Z,3.97
2018-12-09T16:06:13.609Z,10.17
2018-12-09T16:08:41.169Z,1.30
2018-12-09T16:11:08.719Z,3.83
2018-12-09T16:13:36.510Z,1.10
2018-12-09T16:16:04.101Z,10.87
2018-12-09T16:18:31.666Z,5.80
2018-12-09T16:20:59.442Z,3.53
2018-12-09T16:23:27.127Z,6.00
2018-12-09T16:25:54.733Z,2.60
2018-12-09T16:28:22.332Z,3.90
2018-12-09T16:30:49.810Z,5.97
2018-12-09T16:33:18.001Z,4.13
2018-12-09T16:35:47.547Z,4.27
2018-12-09T16:38:15.399Z,6.30
2018-12-09T16:40:43.035Z,4.13
2018-12-09T16:43:11.733Z,8.67
2018-12-09T16:45:39.879Z,6.07
2018-12-09T16:48:07.454Z,2.60
2018-12-09T16:50:36.593Z,14.23
2018-12-09T16:53:10.859Z,5.80
2018-12-09T16:55:47.510Z,4.30
2018-12-09T16:58:15.095Z,5.33
2018-12-09T17:00:42.573Z,6.90
2018-12-09T17:03:10.651Z,5.57
2018-12-09T17:05:38.845Z,4.90
2018-12-09T17:08:06.536Z,7.97
2018-12-09T17:10:35.320Z,8.17
2018-12-09T17:13:03.117Z,6.10
2018-12-09T17:15:31.672Z,4.47
2018-12-09T17:18:00.875Z,11.40
2018-12-09T17:20:30.175Z,19.20
2018-12-09T17:23:04.823Z,12.63
2018-12-09T17:25:37.110Z,11.33
2018-12-09T17:28:06.264Z,22.27
2018-12-09T17:35:43.663Z,14.07
2018-12-09T17:38:17.773Z,10.20
2018-12-09T17:40:47.222Z,12.30
2018-12-09T17:43:26.290Z,11.80
2018-12-09T17:46:01.531Z,6.60
2018-12-09T17:48:39.506Z,5.73
2018-12-09T17:51:14.534Z,4.40
2018-12-09T17:54:09.414Z,7.10
2018-12-09T17:56:41.173Z,3.07
2018-12-09T17:59:25.764Z,39.30
2018-12-09T18:05:04.267Z,57.43
2018-12-09T18:07:53.632Z,46.07
2018-12-09T18:10:29.481Z,17.47
2018-12-09T18:13:04.850Z,53.90
2018-12-09T18:16:02.519Z,19.27
2018-12-09T18:18:36.269Z,27.37
2018-12-09T18:24:02.434Z,16.43
2018-12-09T18:29:59.114Z,24.70
2018-12-09T18:32:27.962Z,8.60
2018-12-09T18:34:56.913Z,9.23
2018-12-09T18:37:32.176Z,9.83
2018-12-09T18:40:06.241Z,8.83
2018-12-09T18:42:39.747Z,13.50
2018-12-09T18:45:11.245Z,20.63
2018-12-09T18:47:46.131Z,5.90
2018-12-09T18:50:15.928Z,11.40
2018-12-09T18:52:45.596Z,10.30
2018-12-09T18:55:16.503Z,8.50
2018-12-09T18:57:48.259Z,11.60
2018-12-09T19:00:17.774Z,9.10
2018-12-09T19:02:48.435Z,12.17
2018-12-09T19:05:22.941Z,8.73
2018-12-09T19:10:33.575Z,27.97
2018-12-09T19:13:02.293Z,24.43
2018-12-09T19:15:40.001Z,10.00
2018-12-09T19:18:07.491Z,29.70
2018-12-09T19:20:35.031Z,26.87
2018-12-09T19:23:02.722Z,6.93
2018-12-09T19:25:32.094Z,25.70
2018-12-09T19:29:26.333Z,14.27
2018-12-09T19:31:53.909Z,22.43
2018-12-09T19:34:22.881Z,14.37
2018-12-09T19:36:58.993Z,26.60
2018-12-09T19:39:30.448Z,28.00
2018-12-09T19:43:28.023Z,39.67
2018-12-09T19:45:57.518Z,25.20
2018-12-09T19:48:28.846Z,12.27
2018-12-09T19:50:59.058Z,29.40
2018-12-09T19:53:37.011Z,21.33
2018-12-09T19:56:07.124Z,48.80
2018-12-09T19:58:37.039Z,63.43
2018-12-09T20:01:05.584Z,18.33
2018-12-09T20:03:53.830Z,30.87
2018-12-09T20:06:25.264Z,32.87
2018-12-09T20:08:54.502Z,36.43
2018-12-09T20:11:23.909Z,30.70
2018-12-09T20:13:52.451Z,12.93
2018-12-09T20:16:20.338Z,25.67
2018-12-09T20:18:47.894Z,27.83
2018-12-09T20:21:15.564Z,24.37
2018-12-09T20:23:43.142Z,3.20
2018-12-09T20:26:10.981Z,23.30
2018-12-09T20:28:38.457Z,4.47
2018-12-09T20:31:06.077Z,3.53
2018-12-09T20:33:37.149Z,11.63
2018-12-09T20:36:05.043Z,8.80
2018-12-09T20:38:35.417Z,11.20
2018-12-09T20:41:08.158Z,4.50
2018-12-09T20:43:38.078Z,6.10
2018-12-09T20:46:09.164Z,14.83
2018-12-09T20:48:39.270Z,10.53
2018-12-09T20:51:11.119Z,34.10
2018-12-09T20:53:38.813Z,6.00
2018-12-09T20:56:07.050Z,22.70
2018-12-09T20:58:50.150Z,36.37
2018-12-09T21:01:19.769Z,22.63
2018-12-09T21:04:03.393Z,21.50
2018-12-09T21:06:46.283Z,15.73
2018-12-09T21:09:24.460Z,25.67
2018-12-09T21:11:56.212Z,14.70
2018-12-09T21:14:23.762Z,28.77
2018-12-09T21:16:54.497Z,24.27
2018-12-09T21:19:25.730Z,39.57
2018-12-09T21:27:58.054Z,28.63
2018-12-09T21:30:25.796Z,13.53
2018-12-09T21:33:04.008Z,16.47
2018-12-09T21:35:36.840Z,34.70
2018-12-09T21:41:35.620Z,42.90
2018-12-09T21:44:13.060Z,10.73
2018-12-09T21:46:40.939Z,45.13
2018-12-09T21:49:10.360Z,27.43
2018-12-09T21:51:37.940Z,37.40
2018-12-09T21:54:05.512Z,20.40
2018-12-09T21:56:33.058Z,15.10
2018-12-09T21:59:01.494Z,14.87
2018-12-09T22:01:29.395Z,24.40
2018-12-09T22:03:56.965Z,26.60
2018-12-09T22:06:25.758Z,19.13
2018-12-09T22:08:54.995Z,16.03
2018-12-09T22:11:23.173Z,31.60
2018-12-09T22:13:51.139Z,28.80
2018-12-09T22:16:20.311Z,20.20
2018-12-09T22:18:48.819Z,12.40
2018-12-09T22:21:18.559Z,17.37
2018-12-09T22:23:46.569Z,20.10
2018-12-09T22:26:14.861Z,26.03
2018-12-09T22:28:42.910Z,12.40
2018-12-09T22:31:10.736Z,14.70
2018-12-09T22:33:39.071Z,13.83
2018-12-09T22:36:06.658Z,12.37
2018-12-09T22:38:34.473Z,29.63
2018-12-09T22:41:02.403Z,27.93
2018-12-09T22:43:29.994Z,10.57
2018-12-09T22:45:57.621Z,14.87
2018-12-09T22:48:25.246Z,30.33
2018-12-09T22:50:52.797Z,15.17
2018-12-09T22:53:21.188Z,13.83
2018-12-09T22:55:49.324Z,11.10
2018-12-09T22:58:16.885Z,17.07
2018-12-09T23:00:51.964Z,10.60
2018-12-09T23:03:20.739Z,10.63
2018-12-09T23:05:48.285Z,16.70
2018-12-09T23:08:15.907Z,33.70
2018-12-09T23:10:43.924Z,16.73
2018-12-09T23:13:13.438Z,29.43
2018-12-09T23:17:07.309Z,32.20
2018-12-09T23:19:34.931Z,20.00
2018-12-09T23:22:02.768Z,28.43
2018-12-09T23:24:30.646Z,9.70
2018-12-09T23:26:58.066Z,22.17
2018-12-09T23:29:25.842Z,23.47
2018-12-09T23:31:54.127Z,25.00
2018-12-09T23:34:21.742Z,17.90
2018-12-09T23:36:50.244Z,12.60
2018-12-09T23:39:17.872Z,26.00
2018-12-09T23:41:46.293Z,24.87
2018-12-09T23:44:14.109Z,26.40
2018-12-09T23:46:41.661Z,30.93
2018-12-09T23:49:09.143Z,21.20
2018-12-09T23:51:36.579Z,13.97
2018-12-09T23:54:04.211Z,15.43
2018-12-09T23:56:31.780Z,24.80
2018-12-09T23:58:59.371Z,7.37
